MMCP/CPE METAR and TAF weather

Enter ICAO airport designator
Station Type Date Time Source
MMCP METAR 2020/09/19 23:43 UTC NOAA

MMCP 192343Z 26007KT 7SM FEW040 SCT140 29/25 A2983 RMK SLP089 52006 903 8/130 HZY


Station Type Date Time Source
MMCP Decoded METAR 2020/09/19 23:43 UTC NOAA

Campeche, Camp., Mexico (MMCP) 19-51N 090-33W
Sep 19, 2020 - 07:43 PM EDT / 2020.09.19 2343 UTC
Wind: from the W (260 degrees) at 8 MPH (7 KT):0
Visibility: 7 mile(s):0
Sky conditions: partly cloudy
Temperature: 84 F (29 C)
Dew Point: 77 F (25 C)
Relative Humidity: 79%
Pressure (altimeter): 29.83 in. Hg (1010 hPa)
Pressure tendency: 0.02 inches (0.6 hPa) higher than three hours ago
ob: MMCP 192343Z 26007KT 7SM FEW040 SCT140 29/25 A2983 RMK SLP089 52006 903 8/130 HZY
cycle: 23

Station Type Date Time Source
MMCP TAF 2020/09/20 06:11 UTC NOAA

TAF MMCP 200604Z 2006/2106 26005KT P6SM SCT040 SCT140
FM201800 26010KT P6SM BKN020 BKN140
TEMPO 2021/2101 5SM RA

Example: see airport list